sensor_id;sensor_type;location;lat;lon;timestamp;P1;durP1;ratioP1;P2;durP2;ratioP2
36423;SDS011;22458;45.328;9.514;2023-01-28T00:01:15;14.60;;;9.52;;
36423;SDS011;22458;45.328;9.514;2023-01-28T00:03:41;17.63;;;11.27;;
36423;SDS011;22458;45.328;9.514;2023-01-28T00:06:09;16.10;;;10.95;;
36423;SDS011;22458;45.328;9.514;2023-01-28T00:08:36;19.90;;;11.63;;
36423;SDS011;22458;45.328;9.514;2023-01-28T00:11:03;16.52;;;11.15;;
36423;SDS011;22458;45.328;9.514;2023-01-28T00:13:30;16.90;;;10.88;;
36423;SDS011;22458;45.328;9.514;2023-01-28T00:15:57;13.75;;;9.88;;
36423;SDS011;22458;45.328;9.514;2023-01-28T00:18:27;18.67;;;11.43;;
36423;SDS011;22458;45.328;9.514;2023-01-28T00:23:30;16.90;;;11.00;;
36423;SDS011;22458;45.328;9.514;2023-01-28T00:26:02;16.52;;;10.55;;
36423;SDS011;22458;45.328;9.514;2023-01-28T00:28:29;16.58;;;11.38;;
36423;SDS011;22458;45.328;9.514;2023-01-28T00:30:55;14.90;;;11.05;;
36423;SDS011;22458;45.328;9.514;2023-01-28T00:33:21;18.55;;;11.50;;
36423;SDS011;22458;45.328;9.514;2023-01-28T00:35:55;16.23;;;11.18;;
36423;SDS011;22458;45.328;9.514;2023-01-28T00:38:22;17.05;;;11.05;;
36423;SDS011;22458;45.328;9.514;2023-01-28T00:40:48;16.92;;;11.02;;
36423;SDS011;22458;45.328;9.514;2023-01-28T00:43:13;20.17;;;12.15;;
36423;SDS011;22458;45.328;9.514;2023-01-28T00:45:40;16.98;;;10.65;;
36423;SDS011;22458;45.328;9.514;2023-01-28T00:48:06;16.55;;;11.38;;
36423;SDS011;22458;45.328;9.514;2023-01-28T00:50:32;15.43;;;10.48;;
36423;SDS011;22458;45.328;9.514;2023-01-28T00:52:58;17.70;;;11.45;;
36423;SDS011;22458;45.328;9.514;2023-01-28T00:55:23;16.23;;;10.55;;
36423;SDS011;22458;45.328;9.514;2023-01-28T00:57:49;16.70;;;11.73;;
36423;SDS011;22458;45.328;9.514;2023-01-28T01:00:15;17.75;;;10.93;;
36423;SDS011;22458;45.328;9.514;2023-01-28T01:02:44;15.25;;;10.32;;
36423;SDS011;22458;45.328;9.514;2023-01-28T01:05:10;17.50;;;11.68;;
36423;SDS011;22458;45.328;9.514;2023-01-28T01:07:35;17.05;;;11.07;;
36423;SDS011;22458;45.328;9.514;2023-01-28T01:10:17;14.27;;;9.80;;
36423;SDS011;22458;45.328;9.514;2023-01-28T01:12:47;19.55;;;11.38;;
36423;SDS011;22458;45.328;9.514;2023-01-28T01:15:14;20.00;;;12.73;;
36423;SDS011;22458;45.328;9.514;2023-01-28T01:17:42;18.10;;;11.25;;
36423;SDS011;22458;45.328;9.514;2023-01-28T01:20:14;17.67;;;11.02;;
36423;SDS011;22458;45.328;9.514;2023-01-28T01:22:44;18.25;;;10.30;;
36423;SDS011;22458;45.328;9.514;2023-01-28T01:25:10;19.23;;;10.88;;
36423;SDS011;22458;45.328;9.514;2023-01-28T01:27:39;17.55;;;11.73;;
36423;SDS011;22458;45.328;9.514;2023-01-28T01:30:05;17.50;;;11.20;;
36423;SDS011;22458;45.328;9.514;2023-01-28T01:32:33;16.42;;;11.07;;
36423;SDS011;22458;45.328;9.514;2023-01-28T01:34:59;14.45;;;10.00;;
36423;SDS011;22458;45.328;9.514;2023-01-28T01:37:26;15.60;;;10.18;;
36423;SDS011;22458;45.328;9.514;2023-01-28T01:39:52;17.42;;;10.63;;
36423;SDS011;22458;45.328;9.514;2023-01-28T01:42:19;16.70;;;10.75;;
36423;SDS011;22458;45.328;9.514;2023-01-28T01:44:53;14.05;;;9.82;;
36423;SDS011;22458;45.328;9.514;2023-01-28T01:50:27;12.82;;;9.75;;
36423;SDS011;22458;45.328;9.514;2023-01-28T01:53:15;14.57;;;9.88;;
36423;SDS011;22458;45.328;9.514;2023-01-28T01:55:44;15.50;;;9.73;;
36423;SDS011;22458;45.328;9.514;2023-01-28T01:58:15;16.63;;;10.45;;
36423;SDS011;22458;45.328;9.514;2023-01-28T02:00:43;16.23;;;10.68;;
36423;SDS011;22458;45.328;9.514;2023-01-28T02:03:10;15.45;;;10.55;;
36423;SDS011;22458;45.328;9.514;2023-01-28T02:05:37;17.92;;;10.23;;
36423;SDS011;22458;45.328;9.514;2023-01-28T02:08:03;15.05;;;9.90;;
36423;SDS011;22458;45.328;9.514;2023-01-28T02:10:51;14.52;;;10.10;;
36423;SDS011;22458;45.328;9.514;2023-01-28T02:13:27;14.70;;;9.75;;
36423;SDS011;22458;45.328;9.514;2023-01-28T02:15:58;17.50;;;10.95;;
36423;SDS011;22458;45.328;9.514;2023-01-28T02:18:26;15.48;;;9.77;;
36423;SDS011;22458;45.328;9.514;2023-01-28T02:29:34;15.98;;;9.90;;
36423;SDS011;22458;45.328;9.514;2023-01-28T02:32:26;16.48;;;9.98;;
36423;SDS011;22458;45.328;9.514;2023-01-28T02:35:14;15.23;;;9.85;;
36423;SDS011;22458;45.328;9.514;2023-01-28T02:38:48;16.00;;;9.63;;
36423;SDS011;22458;45.328;9.514;2023-01-28T02:40:47;14.55;;;10.02;;
36423;SDS011;22458;45.328;9.514;2023-01-28T02:46:02;14.68;;;9.75;;
36423;SDS011;22458;45.328;9.514;2023-01-28T02:48:54;14.48;;;9.20;;
36423;SDS011;22458;45.328;9.514;2023-01-28T02:51:24;15.75;;;10.40;;
36423;SDS011;22458;45.328;9.514;2023-01-28T02:53:56;15.48;;;10.70;;
36423;SDS011;22458;45.328;9.514;2023-01-28T02:56:46;14.70;;;10.73;;
36423;SDS011;22458;45.328;9.514;2023-01-28T02:59:26;15.20;;;10.00;;
36423;SDS011;22458;45.328;9.514;2023-01-28T03:02:12;14.60;;;9.50;;
36423;SDS011;22458;45.328;9.514;2023-01-28T03:05:02;15.45;;;10.10;;
36423;SDS011;22458;45.328;9.514;2023-01-28T03:07:40;17.20;;;10.05;;
36423;SDS011;22458;45.328;9.514;2023-01-28T03:10:07;14.70;;;9.85;;
36423;SDS011;22458;45.328;9.514;2023-01-28T03:12:37;17.30;;;12.00;;
36423;SDS011;22458;45.328;9.514;2023-01-28T03:15:25;17.75;;;11.07;;
36423;SDS011;22458;45.328;9.514;2023-01-28T03:18:29;15.88;;;10.73;;
36423;SDS011;22458;45.328;9.514;2023-01-28T03:21:23;17.05;;;11.00;;
36423;SDS011;22458;45.328;9.514;2023-01-28T03:24:16;17.33;;;11.38;;
36423;SDS011;22458;45.328;9.514;2023-01-28T03:30:37;16.55;;;11.23;;
36423;SDS011;22458;45.328;9.514;2023-01-28T03:33:39;20.20;;;11.97;;
36423;SDS011;22458;45.328;9.514;2023-01-28T03:36:25;17.60;;;11.50;;
36423;SDS011;22458;45.328;9.514;2023-01-28T03:39:26;21.98;;;12.02;;
36423;SDS011;22458;45.328;9.514;2023-01-28T03:44:24;19.60;;;11.93;;
36423;SDS011;22458;45.328;9.514;2023-01-28T03:47:09;18.88;;;12.43;;
36423;SDS011;22458;45.328;9.514;2023-01-28T03:49:40;16.10;;;11.88;;
36423;SDS011;22458;45.328;9.514;2023-01-28T03:52:07;19.27;;;11.32;;
36423;SDS011;22458;45.328;9.514;2023-01-28T03:54:32;20.40;;;12.80;;
36423;SDS011;22458;45.328;9.514;2023-01-28T03:56:58;18.13;;;11.68;;
36423;SDS011;22458;45.328;9.514;2023-01-28T03:59:24;20.20;;;12.07;;
36423;SDS011;22458;45.328;9.514;2023-01-28T04:01:50;19.00;;;11.30;;
36423;SDS011;22458;45.328;9.514;2023-01-28T04:04:16;19.65;;;12.15;;
36423;SDS011;22458;45.328;9.514;2023-01-28T04:06:48;18.40;;;12.40;;
36423;SDS011;22458;45.328;9.514;2023-01-28T04:09:18;19.25;;;12.13;;
36423;SDS011;22458;45.328;9.514;2023-01-28T04:14:20;16.27;;;10.30;;
36423;SDS011;22458;45.328;9.514;2023-01-28T04:16:51;17.27;;;11.82;;
36423;SDS011;22458;45.328;9.514;2023-01-28T04:19:19;17.05;;;11.32;;
36423;SDS011;22458;45.328;9.514;2023-01-28T04:21:46;17.77;;;11.48;;
36423;SDS011;22458;45.328;9.514;2023-01-28T04:24:14;17.10;;;10.60;;
36423;SDS011;22458;45.328;9.514;2023-01-28T04:26:40;18.35;;;10.98;;
36423;SDS011;22458;45.328;9.514;2023-01-28T04:29:06;16.90;;;10.13;;
36423;SDS011;22458;45.328;9.514;2023-01-28T04:31:34;19.58;;;11.80;;
36423;SDS011;22458;45.328;9.514;2023-01-28T04:34:32;16.95;;;11.43;;
36423;SDS011;22458;45.328;9.514;2023-01-28T04:37:11;17.07;;;11.97;;
36423;SDS011;22458;45.328;9.514;2023-01-28T04:39:54;20.42;;;13.43;;
36423;SDS011;22458;45.328;9.514;2023-01-28T04:42:38;18.98;;;11.02;;
36423;SDS011;22458;45.328;9.514;2023-01-28T04:45:09;18.38;;;11.82;;
36423;SDS011;22458;45.328;9.514;2023-01-28T04:47:49;19.50;;;12.10;;
36423;SDS011;22458;45.328;9.514;2023-01-28T04:50:35;18.98;;;12.23;;
36423;SDS011;22458;45.328;9.514;2023-01-28T04:53:27;16.13;;;10.95;;
36423;SDS011;22458;45.328;9.514;2023-01-28T04:55:56;18.40;;;12.23;;
36423;SDS011;22458;45.328;9.514;2023-01-28T04:58:23;19.27;;;12.45;;
36423;SDS011;22458;45.328;9.514;2023-01-28T05:00:55;19.77;;;11.32;;
36423;SDS011;22458;45.328;9.514;2023-01-28T05:03:22;17.17;;;11.02;;
36423;SDS011;22458;45.328;9.514;2023-01-28T05:05:49;15.77;;;10.18;;
36423;SDS011;22458;45.328;9.514;2023-01-28T05:08:20;18.90;;;13.07;;
36423;SDS011;22458;45.328;9.514;2023-01-28T05:10:46;15.05;;;11.25;;
36423;SDS011;22458;45.328;9.514;2023-01-28T05:13:12;19.92;;;11.20;;
36423;SDS011;22458;45.328;9.514;2023-01-28T05:15:39;17.95;;;11.70;;
36423;SDS011;22458;45.328;9.514;2023-01-28T05:18:04;21.80;;;12.48;;
36423;SDS011;22458;45.328;9.514;2023-01-28T05:20:36;17.42;;;11.90;;
36423;SDS011;22458;45.328;9.514;2023-01-28T05:23:02;18.35;;;11.85;;
36423;SDS011;22458;45.328;9.514;2023-01-28T05:25:40;23.33;;;12.27;;
36423;SDS011;22458;45.328;9.514;2023-01-28T05:28:06;20.52;;;12.68;;
36423;SDS011;22458;45.328;9.514;2023-01-28T05:30:32;19.60;;;12.57;;
36423;SDS011;22458;45.328;9.514;2023-01-28T05:32:58;21.80;;;12.30;;
36423;SDS011;22458;45.328;9.514;2023-01-28T05:35:27;17.90;;;11.23;;
36423;SDS011;22458;45.328;9.514;2023-01-28T05:37:52;18.93;;;11.97;;
36423;SDS011;22458;45.328;9.514;2023-01-28T05:40:19;21.48;;;13.07;;
36423;SDS011;22458;45.328;9.514;2023-01-28T05:42:45;22.05;;;12.02;;
36423;SDS011;22458;45.328;9.514;2023-01-28T05:45:29;21.65;;;12.43;;
36423;SDS011;22458;45.328;9.514;2023-01-28T05:48:02;20.67;;;12.07;;
36423;SDS011;22458;45.328;9.514;2023-01-28T05:53:14;25.70;;;15.38;;
36423;SDS011;22458;45.328;9.514;2023-01-28T05:55:42;23.42;;;15.20;;
36423;SDS011;22458;45.328;9.514;2023-01-28T05:58:11;20.52;;;13.48;;
36423;SDS011;22458;45.328;9.514;2023-01-28T06:00:37;21.40;;;14.55;;
36423;SDS011;22458;45.328;9.514;2023-01-28T06:03:03;20.35;;;12.27;;
36423;SDS011;22458;45.328;9.514;2023-01-28T06:05:30;20.73;;;12.60;;
36423;SDS011;22458;45.328;9.514;2023-01-28T06:07:57;18.45;;;12.18;;
36423;SDS011;22458;45.328;9.514;2023-01-28T06:10:24;23.08;;;12.68;;
36423;SDS011;22458;45.328;9.514;2023-01-28T06:12:50;22.65;;;13.00;;
36423;SDS011;22458;45.328;9.514;2023-01-28T06:15:36;18.73;;;12.20;;
36423;SDS011;22458;45.328;9.514;2023-01-28T06:18:17;17.08;;;12.00;;
36423;SDS011;22458;45.328;9.514;2023-01-28T06:20:43;21.80;;;12.43;;
36423;SDS011;22458;45.328;9.514;2023-01-28T06:23:09;19.33;;;12.57;;
36423;SDS011;22458;45.328;9.514;2023-01-28T06:25:35;19.02;;;12.02;;
36423;SDS011;22458;45.328;9.514;2023-01-28T06:28:05;17.95;;;11.25;;
36423;SDS011;22458;45.328;9.514;2023-01-28T06:30:31;18.77;;;12.18;;
36423;SDS011;22458;45.328;9.514;2023-01-28T06:32:57;16.25;;;11.00;;
36423;SDS011;22458;45.328;9.514;2023-01-28T06:35:23;16.67;;;10.95;;
36423;SDS011;22458;45.328;9.514;2023-01-28T06:37:48;13.98;;;9.55;;
36423;SDS011;22458;45.328;9.514;2023-01-28T06:40:15;15.35;;;10.88;;
36423;SDS011;22458;45.328;9.514;2023-01-28T06:42:41;17.67;;;11.38;;
36423;SDS011;22458;45.328;9.514;2023-01-28T06:45:06;16.52;;;10.77;;
36423;SDS011;22458;45.328;9.514;2023-01-28T06:47:32;17.70;;;10.90;;
36423;SDS011;22458;45.328;9.514;2023-01-28T06:49:58;18.23;;;11.20;;
36423;SDS011;22458;45.328;9.514;2023-01-28T06:52:24;16.63;;;10.85;;
36423;SDS011;22458;45.328;9.514;2023-01-28T06:54:49;15.88;;;9.85;;
36423;SDS011;22458;45.328;9.514;2023-01-28T06:57:15;14.88;;;10.35;;
36423;SDS011;22458;45.328;9.514;2023-01-28T06:59:41;17.38;;;12.88;;
36423;SDS011;22458;45.328;9.514;2023-01-28T07:02:08;18.35;;;11.90;;
36423;SDS011;22458;45.328;9.514;2023-01-28T07:04:35;14.43;;;10.07;;
36423;SDS011;22458;45.328;9.514;2023-01-28T07:07:01;16.33;;;9.95;;
36423;SDS011;22458;45.328;9.514;2023-01-28T07:09:27;17.15;;;10.77;;
36423;SDS011;22458;45.328;9.514;2023-01-28T07:11:53;16.67;;;10.82;;
36423;SDS011;22458;45.328;9.514;2023-01-28T07:14:19;17.10;;;11.07;;
36423;SDS011;22458;45.328;9.514;2023-01-28T07:16:44;16.10;;;10.88;;
36423;SDS011;22458;45.328;9.514;2023-01-28T07:19:10;18.90;;;11.85;;
36423;SDS011;22458;45.328;9.514;2023-01-28T07:21:36;19.17;;;11.20;;
36423;SDS011;22458;45.328;9.514;2023-01-28T07:24:02;18.75;;;11.80;;
36423;SDS011;22458;45.328;9.514;2023-01-28T07:26:29;17.00;;;11.20;;
36423;SDS011;22458;45.328;9.514;2023-01-28T07:28:55;16.70;;;11.60;;
36423;SDS011;22458;45.328;9.514;2023-01-28T07:31:21;22.25;;;12.88;;
36423;SDS011;22458;45.328;9.514;2023-01-28T07:33:47;16.10;;;10.02;;
36423;SDS011;22458;45.328;9.514;2023-01-28T07:36:13;19.70;;;11.55;;
36423;SDS011;22458;45.328;9.514;2023-01-28T07:38:38;17.00;;;11.40;;
36423;SDS011;22458;45.328;9.514;2023-01-28T07:41:05;21.38;;;12.52;;
36423;SDS011;22458;45.328;9.514;2023-01-28T07:43:31;23.00;;;13.65;;
36423;SDS011;22458;45.328;9.514;2023-01-28T07:45:59;22.20;;;13.00;;
36423;SDS011;22458;45.328;9.514;2023-01-28T07:48:26;20.58;;;13.50;;
36423;SDS011;22458;45.328;9.514;2023-01-28T07:50:51;19.90;;;12.57;;
36423;SDS011;22458;45.328;9.514;2023-01-28T07:53:18;20.33;;;12.68;;
36423;SDS011;22458;45.328;9.514;2023-01-28T07:55:44;19.27;;;11.90;;
36423;SDS011;22458;45.328;9.514;2023-01-28T07:58:10;18.63;;;12.93;;
36423;SDS011;22458;45.328;9.514;2023-01-28T08:00:36;18.35;;;12.73;;
36423;SDS011;22458;45.328;9.514;2023-01-28T08:03:08;20.13;;;12.10;;
36423;SDS011;22458;45.328;9.514;2023-01-28T08:05:39;20.33;;;13.70;;
36423;SDS011;22458;45.328;9.514;2023-01-28T08:08:08;19.10;;;12.23;;
36423;SDS011;22458;45.328;9.514;2023-01-28T08:10:36;20.77;;;12.25;;
36423;SDS011;22458;45.328;9.514;2023-01-28T08:13:02;18.67;;;11.57;;
36423;SDS011;22458;45.328;9.514;2023-01-28T08:15:28;20.02;;;12.88;;
36423;SDS011;22458;45.328;9.514;2023-01-28T08:17:55;19.08;;;12.48;;
36423;SDS011;22458;45.328;9.514;2023-01-28T08:20:24;22.75;;;12.25;;
36423;SDS011;22458;45.328;9.514;2023-01-28T08:22:51;20.85;;;12.77;;
36423;SDS011;22458;45.328;9.514;2023-01-28T08:25:17;20.90;;;12.70;;
36423;SDS011;22458;45.328;9.514;2023-01-28T08:27:43;19.77;;;13.13;;
36423;SDS011;22458;45.328;9.514;2023-01-28T08:30:09;21.50;;;14.00;;
36423;SDS011;22458;45.328;9.514;2023-01-28T08:32:35;19.33;;;12.93;;
36423;SDS011;22458;45.328;9.514;2023-01-28T08:35:01;22.45;;;13.27;;
36423;SDS011;22458;45.328;9.514;2023-01-28T08:37:27;22.30;;;13.32;;
36423;SDS011;22458;45.328;9.514;2023-01-28T08:39:53;22.63;;;13.75;;
36423;SDS011;22458;45.328;9.514;2023-01-28T08:42:19;22.60;;;13.18;;
36423;SDS011;22458;45.328;9.514;2023-01-28T08:44:44;20.70;;;12.55;;
36423;SDS011;22458;45.328;9.514;2023-01-28T08:47:12;19.63;;;13.32;;
36423;SDS011;22458;45.328;9.514;2023-01-28T08:49:38;23.88;;;13.65;;
36423;SDS011;22458;45.328;9.514;2023-01-28T08:52:04;20.27;;;12.60;;
36423;SDS011;22458;45.328;9.514;2023-01-28T08:54:31;22.02;;;13.07;;
36423;SDS011;22458;45.328;9.514;2023-01-28T08:56:57;24.35;;;13.27;;
36423;SDS011;22458;45.328;9.514;2023-01-28T08:59:23;21.77;;;13.45;;
36423;SDS011;22458;45.328;9.514;2023-01-28T09:01:49;20.00;;;13.50;;
36423;SDS011;22458;45.328;9.514;2023-01-28T09:04:15;23.20;;;13.73;;
36423;SDS011;22458;45.328;9.514;2023-01-28T09:06:41;21.52;;;13.93;;
36423;SDS011;22458;45.328;9.514;2023-01-28T09:09:07;20.80;;;14.75;;
36423;SDS011;22458;45.328;9.514;2023-01-28T09:11:32;23.92;;;14.68;;
36423;SDS011;22458;45.328;9.514;2023-01-28T09:13:58;25.60;;;15.02;;
36423;SDS011;22458;45.328;9.514;2023-01-28T09:16:24;26.30;;;14.93;;
36423;SDS011;22458;45.328;9.514;2023-01-28T09:18:51;23.10;;;15.10;;
36423;SDS011;22458;45.328;9.514;2023-01-28T09:21:18;18.55;;;12.32;;
36423;SDS011;22458;45.328;9.514;2023-01-28T09:23:45;19.42;;;13.13;;
36423;SDS011;22458;45.328;9.514;2023-01-28T09:26:11;24.30;;;13.57;;
36423;SDS011;22458;45.328;9.514;2023-01-28T09:28:37;20.08;;;14.00;;
36423;SDS011;22458;45.328;9.514;2023-01-28T09:31:05;22.15;;;13.65;;
36423;SDS011;22458;45.328;9.514;2023-01-28T09:33:33;23.60;;;13.40;;
36423;SDS011;22458;45.328;9.514;2023-01-28T09:36:01;19.23;;;13.45;;
36423;SDS011;22458;45.328;9.514;2023-01-28T09:38:30;20.05;;;12.02;;
36423;SDS011;22458;45.328;9.514;2023-01-28T09:40:57;20.35;;;13.32;;
36423;SDS011;22458;45.328;9.514;2023-01-28T09:45:57;23.13;;;13.00;;
36423;SDS011;22458;45.328;9.514;2023-01-28T09:48:32;20.27;;;12.73;;
36423;SDS011;22458;45.328;9.514;2023-01-28T09:51:02;20.95;;;12.02;;
36423;SDS011;22458;45.328;9.514;2023-01-28T09:53:36;22.30;;;13.40;;
36423;SDS011;22458;45.328;9.514;2023-01-28T09:56:11;20.83;;;11.80;;
36423;SDS011;22458;45.328;9.514;2023-01-28T09:58:49;19.65;;;12.70;;
36423;SDS011;22458;45.328;9.514;2023-01-28T10:01:22;21.98;;;12.98;;
36423;SDS011;22458;45.328;9.514;2023-01-28T10:06:41;20.02;;;12.25;;
36423;SDS011;22458;45.328;9.514;2023-01-28T10:12:36;21.02;;;11.85;;
36423;SDS011;22458;45.328;9.514;2023-01-28T10:17:43;17.25;;;11.88;;
36423;SDS011;22458;45.328;9.514;2023-01-28T10:25:33;18.90;;;12.65;;
36423;SDS011;22458;45.328;9.514;2023-01-28T10:27:59;19.80;;;12.82;;
36423;SDS011;22458;45.328;9.514;2023-01-28T10:30:27;17.90;;;12.15;;
36423;SDS011;22458;45.328;9.514;2023-01-28T10:33:03;14.70;;;9.93;;
36423;SDS011;22458;45.328;9.514;2023-01-28T10:35:30;18.13;;;11.80;;
36423;SDS011;22458;45.328;9.514;2023-01-28T10:38:07;16.05;;;9.57;;
36423;SDS011;22458;45.328;9.514;2023-01-28T10:40:36;15.38;;;10.35;;
36423;SDS011;22458;45.328;9.514;2023-01-28T10:43:02;16.10;;;11.02;;
36423;SDS011;22458;45.328;9.514;2023-01-28T10:45:29;17.38;;;11.38;;
36423;SDS011;22458;45.328;9.514;2023-01-28T10:48:12;18.05;;;10.50;;
36423;SDS011;22458;45.328;9.514;2023-01-28T10:50:52;15.70;;;9.93;;
36423;SDS011;22458;45.328;9.514;2023-01-28T10:53:32;18.05;;;10.70;;
36423;SDS011;22458;45.328;9.514;2023-01-28T10:56:03;17.60;;;10.50;;
36423;SDS011;22458;45.328;9.514;2023-01-28T10:58:33;18.25;;;11.45;;
36423;SDS011;22458;45.328;9.514;2023-01-28T11:01:02;26.05;;;11.27;;
36423;SDS011;22458;45.328;9.514;2023-01-28T11:03:31;17.55;;;11.15;;
36423;SDS011;22458;45.328;9.514;2023-01-28T11:05:59;17.80;;;10.82;;
36423;SDS011;22458;45.328;9.514;2023-01-28T11:08:26;19.00;;;11.93;;
36423;SDS011;22458;45.328;9.514;2023-01-28T11:10:54;21.25;;;10.93;;
36423;SDS011;22458;45.328;9.514;2023-01-28T11:13:22;16.40;;;11.30;;
36423;SDS011;22458;45.328;9.514;2023-01-28T11:16:03;22.23;;;12.80;;
36423;SDS011;22458;45.328;9.514;2023-01-28T11:18:37;19.33;;;11.48;;
36423;SDS011;22458;45.328;9.514;2023-01-28T11:21:29;19.00;;;10.77;;
36423;SDS011;22458;45.328;9.514;2023-01-28T11:26:32;19.70;;;12.02;;
36423;SDS011;22458;45.328;9.514;2023-01-28T11:29:01;19.90;;;13.27;;
36423;SDS011;22458;45.328;9.514;2023-01-28T11:31:27;20.70;;;12.63;;
36423;SDS011;22458;45.328;9.514;2023-01-28T11:33:57;18.33;;;11.75;;
36423;SDS011;22458;45.328;9.514;2023-01-28T11:36:26;18.67;;;11.75;;
36423;SDS011;22458;45.328;9.514;2023-01-28T11:38:58;18.40;;;11.63;;
36423;SDS011;22458;45.328;9.514;2023-01-28T11:41:40;19.88;;;12.10;;
36423;SDS011;22458;45.328;9.514;2023-01-28T11:44:25;21.38;;;11.80;;
36423;SDS011;22458;45.328;9.514;2023-01-28T11:49:30;19.65;;;12.35;;
36423;SDS011;22458;45.328;9.514;2023-01-28T11:58:01;16.17;;;11.68;;
36423;SDS011;22458;45.328;9.514;2023-01-28T12:20:17;19.02;;;11.73;;
36423;SDS011;22458;45.328;9.514;2023-01-28T12:42:51;19.27;;;11.43;;
36423;SDS011;22458;45.328;9.514;2023-01-28T12:45:25;19.23;;;11.60;;
36423;SDS011;22458;45.328;9.514;2023-01-28T12:47:59;19.10;;;12.23;;
36423;SDS011;22458;45.328;9.514;2023-01-28T12:50:32;18.42;;;12.43;;
36423;SDS011;22458;45.328;9.514;2023-01-28T12:53:13;17.77;;;11.57;;
36423;SDS011;22458;45.328;9.514;2023-01-28T12:55:45;19.85;;;12.60;;
36423;SDS011;22458;45.328;9.514;2023-01-28T12:58:22;18.52;;;12.20;;
36423;SDS011;22458;45.328;9.514;2023-01-28T13:00:59;18.08;;;11.90;;
36423;SDS011;22458;45.328;9.514;2023-01-28T13:03:37;20.20;;;12.20;;
36423;SDS011;22458;45.328;9.514;2023-01-28T13:06:10;17.23;;;11.55;;
36423;SDS011;22458;45.328;9.514;2023-01-28T13:08:43;18.25;;;12.25;;
36423;SDS011;22458;45.328;9.514;2023-01-28T13:11:11;21.60;;;12.90;;
36423;SDS011;22458;45.328;9.514;2023-01-28T13:13:41;18.80;;;11.93;;
36423;SDS011;22458;45.328;9.514;2023-01-28T13:16:09;20.27;;;12.77;;
36423;SDS011;22458;45.328;9.514;2023-01-28T13:21:16;18.77;;;12.30;;
36423;SDS011;22458;45.328;9.514;2023-01-28T13:31:50;17.77;;;11.27;;
36423;SDS011;22458;45.328;9.514;2023-01-28T13:34:26;20.27;;;11.98;;
36423;SDS011;22458;45.328;9.514;2023-01-28T13:36:57;18.42;;;11.75;;
36423;SDS011;22458;45.328;9.514;2023-01-28T13:39:26;20.98;;;11.63;;
36423;SDS011;22458;45.328;9.514;2023-01-28T13:41:54;20.80;;;12.55;;
36423;SDS011;22458;45.328;9.514;2023-01-28T13:44:32;21.27;;;12.90;;
36423;SDS011;22458;45.328;9.514;2023-01-28T13:47:22;18.13;;;12.07;;
36423;SDS011;22458;45.328;9.514;2023-01-28T13:52:28;18.17;;;11.98;;
36423;SDS011;22458;45.328;9.514;2023-01-28T14:17:34;17.13;;;11.10;;
36423;SDS011;22458;45.328;9.514;2023-01-28T14:20:03;15.10;;;9.88;;
36423;SDS011;22458;45.328;9.514;2023-01-28T14:22:39;15.10;;;10.50;;
36423;SDS011;22458;45.328;9.514;2023-01-28T14:25:10;19.35;;;11.30;;
36423;SDS011;22458;45.328;9.514;2023-01-28T14:27:40;15.82;;;10.07;;
36423;SDS011;22458;45.328;9.514;2023-01-28T14:32:48;16.10;;;10.27;;
36423;SDS011;22458;45.328;9.514;2023-01-28T14:35:37;14.52;;;10.50;;
36423;SDS011;22458;45.328;9.514;2023-01-28T14:38:08;14.55;;;10.48;;
36423;SDS011;22458;45.328;9.514;2023-01-28T14:40:38;16.02;;;9.95;;
36423;SDS011;22458;45.328;9.514;2023-01-28T14:43:10;17.02;;;11.00;;
36423;SDS011;22458;45.328;9.514;2023-01-28T14:45:47;14.85;;;9.55;;
36423;SDS011;22458;45.328;9.514;2023-01-28T14:59:47;12.93;;;8.60;;
36423;SDS011;22458;45.328;9.514;2023-01-28T15:04:48;11.75;;;8.35;;
36423;SDS011;22458;45.328;9.514;2023-01-28T15:09:45;14.27;;;9.00;;
36423;SDS011;22458;45.328;9.514;2023-01-28T15:12:11;16.13;;;9.75;;
36423;SDS011;22458;45.328;9.514;2023-01-28T15:14:39;15.48;;;10.05;;
36423;SDS011;22458;45.328;9.514;2023-01-28T15:17:05;18.13;;;10.02;;
36423;SDS011;22458;45.328;9.514;2023-01-28T15:19:43;14.93;;;10.60;;
36423;SDS011;22458;45.328;9.514;2023-01-28T15:22:12;16.17;;;9.77;;
36423;SDS011;22458;45.328;9.514;2023-01-28T15:24:39;16.02;;;10.00;;
36423;SDS011;22458;45.328;9.514;2023-01-28T15:27:16;15.55;;;10.05;;
36423;SDS011;22458;45.328;9.514;2023-01-28T15:29:52;14.80;;;9.93;;
36423;SDS011;22458;45.328;9.514;2023-01-28T15:32:24;12.13;;;9.25;;
36423;SDS011;22458;45.328;9.514;2023-01-28T15:34:52;22.55;;;11.05;;
36423;SDS011;22458;45.328;9.514;2023-01-28T15:37:18;17.88;;;10.35;;
36423;SDS011;22458;45.328;9.514;2023-01-28T15:39:44;16.55;;;11.15;;
36423;SDS011;22458;45.328;9.514;2023-01-28T15:42:16;17.52;;;12.38;;
36423;SDS011;22458;45.328;9.514;2023-01-28T15:44:50;21.67;;;12.43;;
36423;SDS011;22458;45.328;9.514;2023-01-28T15:47:19;16.00;;;11.25;;
36423;SDS011;22458;45.328;9.514;2023-01-28T15:49:49;17.48;;;11.93;;
36423;SDS011;22458;45.328;9.514;2023-01-28T15:54:43;17.75;;;11.50;;
36423;SDS011;22458;45.328;9.514;2023-01-28T15:59:43;16.27;;;11.70;;
36423;SDS011;22458;45.328;9.514;2023-01-28T16:04:43;17.90;;;12.73;;
36423;SDS011;22458;45.328;9.514;2023-01-28T16:07:28;17.58;;;11.60;;
36423;SDS011;22458;45.328;9.514;2023-01-28T16:09:57;18.50;;;12.20;;
36423;SDS011;22458;45.328;9.514;2023-01-28T16:12:24;16.35;;;12.07;;
36423;SDS011;22458;45.328;9.514;2023-01-28T16:14:53;22.48;;;14.25;;
36423;SDS011;22458;45.328;9.514;2023-01-28T16:17:21;19.25;;;12.57;;
36423;SDS011;22458;45.328;9.514;2023-01-28T16:19:57;19.73;;;12.02;;
36423;SDS011;22458;45.328;9.514;2023-01-28T16:24:55;19.40;;;13.30;;
36423;SDS011;22458;45.328;9.514;2023-01-28T16:27:24;17.02;;;11.05;;
36423;SDS011;22458;45.328;9.514;2023-01-28T16:29:52;17.27;;;11.88;;
36423;SDS011;22458;45.328;9.514;2023-01-28T16:32:51;18.85;;;13.32;;
36423;SDS011;22458;45.328;9.514;2023-01-28T16:35:13;17.45;;;11.90;;
36423;SDS011;22458;45.328;9.514;2023-01-28T16:37:42;16.17;;;11.60;;
36423;SDS011;22458;45.328;9.514;2023-01-28T16:40:08;18.10;;;12.25;;
36423;SDS011;22458;45.328;9.514;2023-01-28T16:42:35;17.77;;;11.35;;
36423;SDS011;22458;45.328;9.514;2023-01-28T16:45:01;16.42;;;11.50;;
36423;SDS011;22458;45.328;9.514;2023-01-28T16:47:27;21.48;;;12.57;;
36423;SDS011;22458;45.328;9.514;2023-01-28T16:49:53;18.55;;;11.38;;
36423;SDS011;22458;45.328;9.514;2023-01-28T16:52:19;16.88;;;10.32;;
36423;SDS011;22458;45.328;9.514;2023-01-28T16:54:44;17.10;;;10.75;;
36423;SDS011;22458;45.328;9.514;2023-01-28T16:57:14;19.10;;;11.73;;
36423;SDS011;22458;45.328;9.514;2023-01-28T16:59:42;17.95;;;11.30;;
36423;SDS011;22458;45.328;9.514;2023-01-28T17:02:12;18.33;;;11.05;;
36423;SDS011;22458;45.328;9.514;2023-01-28T17:04:39;15.65;;;10.43;;
36423;SDS011;22458;45.328;9.514;2023-01-28T17:07:05;16.60;;;11.13;;
36423;SDS011;22458;45.328;9.514;2023-01-28T17:09:31;16.52;;;11.75;;
36423;SDS011;22458;45.328;9.514;2023-01-28T17:11:57;17.17;;;11.13;;
36423;SDS011;22458;45.328;9.514;2023-01-28T17:14:23;18.10;;;11.10;;
36423;SDS011;22458;45.328;9.514;2023-01-28T17:16:49;19.80;;;12.88;;
36423;SDS011;22458;45.328;9.514;2023-01-28T17:19:15;32.08;;;23.35;;
36423;SDS011;22458;45.328;9.514;2023-01-28T17:21:41;28.20;;;18.20;;
36423;SDS011;22458;45.328;9.514;2023-01-28T17:24:07;26.30;;;17.45;;